Time;durP1;ratioP1;P1;durP2;ratioP2;P2;SDS_P1;SDS_P2;PMS_P1;PMS_P2;Temp;Humidity;BMP_temperature;BMP_pressure;BME280_temperature;BME280_humidity;BME280_pressure;Samples;Min_cycle;Max_cycle;Signal;HPM_P1;HPM_P2
2023/04/24 00:00:58;;;;;;;2.40;2.40;;;;;;;;;;4982379;28;20437;-82
2023/04/24 00:03:24;;;;;;;2.10;2.10;;;;;;;;;;4985737;28;20461;-82
2023/04/24 00:05:51;;;;;;;1.90;1.90;;;;;;;;;;4966764;28;20454;-80
2023/04/24 00:08:18;;;;;;;2.27;2.27;;;;;;;;;;4967293;28;20520;-81
2023/04/24 00:10:44;;;;;;;1.30;1.30;;;;;;;;;;4966404;28;20449;-81
2023/04/24 00:13:10;;;;;;;2.93;2.50;;;;;;;;;;4968601;28;20507;-82
2023/04/24 00:15:36;;;;;;;2.43;2.43;;;;;;;;;;4956471;28;20496;-82
2023/04/24 00:18:02;;;;;;;6.20;6.00;;;;;;;;;;4968552;28;20448;-81
2023/04/24 00:20:37;;;;;;;4.73;4.63;;;;;;;;;;4963418;28;21015;-82
2023/04/24 00:23:03;;;;;;;6.40;6.00;;;;;;;;;;4938980;29;20433;-81
2023/04/24 00:25:29;;;;;;;5.53;5.33;;;;;;;;;;4957847;28;20946;-82
2023/04/24 00:27:55;;;;;;;5.90;5.67;;;;;;;;;;4979635;28;20837;-81
2023/04/24 00:30:21;;;;;;;6.10;5.90;;;;;;;;;;4964614;28;20452;-81
2023/04/24 00:32:47;;;;;;;7.37;7.10;;;;;;;;;;4966766;28;20520;-80
2023/04/24 00:35:14;;;;;;;4.63;4.53;;;;;;;;;;4960446;28;20477;-81
2023/04/24 00:37:40;;;;;;;5.73;5.57;;;;;;;;;;4965914;28;20535;-81
2023/04/24 00:40:06;;;;;;;6.17;5.97;;;;;;;;;;4965188;28;20592;-81
2023/04/24 00:42:33;;;;;;;24.87;23.73;;;;;;;;;;4969480;28;20944;-81
2023/04/24 00:44:59;;;;;;;23.40;22.20;;;;;;;;;;4967060;28;20445;-81
2023/04/24 00:47:25;;;;;;;10.10;9.70;;;;;;;;;;4969768;28;20440;-80
2023/04/24 00:49:51;;;;;;;17.17;16.37;;;;;;;;;;4966829;28;20449;-82
2023/04/24 00:52:17;;;;;;;6.37;6.27;;;;;;;;;;4953027;28;21007;-80
2023/04/24 00:54:52;;;;;;;8.27;7.93;;;;;;;;;;4966224;28;20504;-82
2023/04/24 00:57:20;;;;;;;8.03;4.67;;;;;;;;;;4965958;28;20837;-82
2023/04/24 01:00:05;;;;;;;4.53;4.43;;;;;;;;;;4966001;28;20936;-81
2023/04/24 01:02:34;;;;;;;4.80;4.60;;;;;;;;;;4960825;28;20553;-81
2023/04/24 01:05:00;;;;;;;4.00;3.80;;;;;;;;;;4965895;28;20442;-81
2023/04/24 01:07:26;;;;;;;4.07;3.97;;;;;;;;;;4969157;28;20914;-81
2023/04/24 01:09:53;;;;;;;5.00;4.90;;;;;;;;;;4965234;28;20811;-81
2023/04/24 01:12:19;;;;;;;5.30;5.20;;;;;;;;;;4967130;28;20453;-81
2023/04/24 01:14:45;;;;;;;4.23;4.13;;;;;;;;;;4966553;28;20977;-82
2023/04/24 01:17:12;;;;;;;3.10;3.00;;;;;;;;;;4969969;28;20440;-81
2023/04/24 01:19:38;;;;;;;4.23;4.13;;;;;;;;;;4965719;28;20869;-80
2023/04/24 01:22:09;;;;;;;3.10;2.97;;;;;;;;;;4957745;28;20474;-80
2023/04/24 01:24:35;;;;;;;4.10;4.00;;;;;;;;;;4965807;28;20444;-82
2023/04/24 01:27:01;;;;;;;6.33;6.03;;;;;;;;;;4967628;28;20441;-81
2023/04/24 01:29:27;;;;;;;6.80;6.50;;;;;;;;;;4964989;28;20819;-80
2023/04/24 01:31:53;;;;;;;6.87;6.57;;;;;;;;;;4964352;28;20465;-82
2023/04/24 01:34:19;;;;;;;6.40;6.20;;;;;;;;;;4966036;28;20445;-82
2023/04/24 01:36:46;;;;;;;4.80;4.50;;;;;;;;;;4969362;28;20535;-81
2023/04/24 01:39:12;;;;;;;2.23;2.23;;;;;;;;;;4964957;28;20437;-81
2023/04/24 01:41:38;;;;;;;2.67;2.63;;;;;;;;;;4968891;28;20435;-81
2023/04/24 01:44:04;;;;;;;2.63;2.53;;;;;;;;;;4965343;28;20952;-81
2023/04/24 01:46:31;;;;;;;3.27;3.27;;;;;;;;;;4968566;28;20542;-81
2023/04/24 01:48:58;;;;;;;4.73;3.10;;;;;;;;;;4969656;28;20438;-81
2023/04/24 01:51:24;;;;;;;5.50;5.00;;;;;;;;;;4970045;28;20523;-81
2023/04/24 01:53:50;;;;;;;13.43;12.60;;;;;;;;;;4961869;28;20444;-81
2023/04/24 01:56:16;;;;;;;7.17;6.87;;;;;;;;;;4970049;28;20881;-81
2023/04/24 01:58:43;;;;;;;28.60;26.57;;;;;;;;;;4967439;28;20532;-81
2023/04/24 02:01:09;;;;;;;7.40;7.13;;;;;;;;;;4961478;28;20437;-82
2023/04/24 02:03:35;;;;;;;18.10;16.67;;;;;;;;;;4959872;28;20500;-80
2023/04/24 02:06:01;;;;;;;12.10;11.30;;;;;;;;;;4966965;28;20465;-82
2023/04/24 02:08:27;;;;;;;9.63;8.97;;;;;;;;;;4993185;28;20453;-82
2023/04/24 02:10:53;;;;;;;11.10;10.10;;;;;;;;;;4984634;28;20452;-82
2023/04/24 02:13:19;;;;;;;10.03;9.43;;;;;;;;;;4974799;28;20726;-82
2023/04/24 02:15:45;;;;;;;8.20;7.60;;;;;;;;;;4972460;28;21000;-83
2023/04/24 02:18:12;;;;;;;9.83;9.13;;;;;;;;;;4977099;28;20436;-83
2023/04/24 02:20:38;;;;;;;7.40;6.90;;;;;;;;;;4973811;28;20441;-83
2023/04/24 02:23:04;;;;;;;10.30;9.50;;;;;;;;;;4980049;28;20459;-82
2023/04/24 02:25:30;;;;;;;9.90;9.07;;;;;;;;;;4975593;28;20561;-82
2023/04/24 02:27:56;;;;;;;10.60;9.67;;;;;;;;;;4975749;28;20464;-83
2023/04/24 02:30:22;;;;;;;8.37;7.57;;;;;;;;;;4975066;28;20525;-82
2023/04/24 02:32:49;;;;;;;6.50;6.20;;;;;;;;;;4969038;28;20449;-82
2023/04/24 02:35:15;;;;;;;8.97;6.10;;;;;;;;;;4975852;28;20472;-82
2023/04/24 02:37:41;;;;;;;7.77;7.17;;;;;;;;;;4980997;28;20547;-83
2023/04/24 02:40:07;;;;;;;6.93;6.43;;;;;;;;;;4975746;28;20449;-82
2023/04/24 02:42:33;;;;;;;7.00;6.40;;;;;;;;;;4975879;28;20440;-83
2023/04/24 02:44:59;;;;;;;7.40;6.90;;;;;;;;;;4975706;28;20494;-82
2023/04/24 02:47:25;;;;;;;11.67;7.87;;;;;;;;;;4978431;28;20468;-81
2023/04/24 02:49:51;;;;;;;8.23;7.30;;;;;;;;;;4974320;28;20511;-81
2023/04/24 02:52:17;;;;;;;8.20;7.60;;;;;;;;;;4975909;28;20465;-83
2023/04/24 02:54:43;;;;;;;7.77;7.10;;;;;;;;;;4978581;28;20441;-81
2023/04/24 02:57:09;;;;;;;8.37;7.63;;;;;;;;;;4966825;28;20437;-82
2023/04/24 02:59:35;;;;;;;9.63;8.73;;;;;;;;;;4974362;28;20444;-81
2023/04/24 03:02:01;;;;;;;13.33;11.40;;;;;;;;;;4975987;28;20480;-81
2023/04/24 03:04:27;;;;;;;11.23;10.23;;;;;;;;;;4967844;28;20537;-80
2023/04/24 03:06:56;;;;;;;10.03;9.23;;;;;;;;;;4955742;28;20497;-83
2023/04/24 03:09:22;;;;;;;14.80;13.47;;;;;;;;;;4963343;28;21170;-81
2023/04/24 03:11:49;;;;;;;13.33;12.33;;;;;;;;;;4964902;28;20482;-80
2023/04/24 03:14:15;;;;;;;13.07;11.53;;;;;;;;;;4965154;28;20873;-80
2023/04/24 03:16:41;;;;;;;12.53;11.50;;;;;;;;;;4969339;28;20488;-81
2023/04/24 03:19:07;;;;;;;15.03;13.53;;;;;;;;;;4966027;28;20441;-81
2023/04/24 03:21:33;;;;;;;16.03;14.50;;;;;;;;;;4970205;28;20501;-81
2023/04/24 03:23:59;;;;;;;15.47;13.53;;;;;;;;;;4962212;28;20464;-81
2023/04/24 03:26:25;;;;;;;12.33;11.13;;;;;;;;;;4969085;28;20495;-80
2023/04/24 03:28:51;;;;;;;26.80;24.30;;;;;;;;;;4954734;28;20436;-81
2023/04/24 03:31:17;;;;;;;11.60;10.70;;;;;;;;;;4967135;28;20413;-81
2023/04/24 03:33:43;;;;;;;23.17;21.00;;;;;;;;;;4965773;28;20576;-81
2023/04/24 03:36:09;;;;;;;11.93;10.83;;;;;;;;;;4961781;28;20830;-79
2023/04/24 03:38:35;;;;;;;19.90;17.30;;;;;;;;;;4961993;28;20687;-79
2023/04/24 03:41:01;;;;;;;16.20;12.03;;;;;;;;;;4967489;28;20424;-79
2023/04/24 03:43:27;;;;;;;11.40;7.57;;;;;;;;;;4965420;28;20419;-79
2023/04/24 03:45:53;;;;;;;14.90;12.47;;;;;;;;;;4947970;28;20843;-79
2023/04/24 03:48:19;;;;;;;11.33;10.33;;;;;;;;;;4967212;28;20421;-80
2023/04/24 03:50:45;;;;;;;11.47;10.53;;;;;;;;;;4965176;28;20441;-80
2023/04/24 03:53:11;;;;;;;11.70;10.50;;;;;;;;;;4970156;28;20526;-81
2023/04/24 03:55:37;;;;;;;7.27;6.67;;;;;;;;;;4965048;28;21113;-81
2023/04/24 03:58:03;;;;;;;8.40;7.50;;;;;;;;;;4968260;28;20761;-80
2023/04/24 04:00:33;;;;;;;9.30;8.40;;;;;;;;;;4964656;28;20455;-80
2023/04/24 04:02:59;;;;;;;7.97;7.23;;;;;;;;;;4965942;28;20528;-80
2023/04/24 04:05:25;;;;;;;11.60;10.60;;;;;;;;;;4963060;28;21031;-80
2023/04/24 04:07:51;;;;;;;8.17;7.40;;;;;;;;;;4967234;28;20531;-81
2023/04/24 04:10:17;;;;;;;8.63;8.03;;;;;;;;;;4969095;28;20437;-80
2023/04/24 04:12:43;;;;;;;10.00;9.10;;;;;;;;;;4987591;28;20405;-81
2023/04/24 04:15:09;;;;;;;11.47;10.47;;;;;;;;;;4987255;28;20441;-80
2023/04/24 04:17:35;;;;;;;10.10;8.73;;;;;;;;;;4989470;28;20430;-81
2023/04/24 04:20:01;;;;;;;13.93;10.80;;;;;;;;;;4968547;28;20801;-78
2023/04/24 04:22:28;;;;;;;9.43;8.40;;;;;;;;;;4968294;28;20430;-79
2023/04/24 04:24:54;;;;;;;11.90;10.60;;;;;;;;;;4949491;28;20446;-79
2023/04/24 04:27:21;;;;;;;9.50;8.83;;;;;;;;;;4963666;28;20449;-80
2023/04/24 04:29:46;;;;;;;11.40;10.50;;;;;;;;;;4967774;28;20476;-80
2023/04/24 04:32:12;;;;;;;12.13;8.70;;;;;;;;;;4967145;28;20461;-81
2023/04/24 04:34:39;;;;;;;9.50;8.67;;;;;;;;;;4970919;28;20455;-81
2023/04/24 04:37:05;;;;;;;9.43;8.63;;;;;;;;;;4971392;28;20559;-81
2023/04/24 04:39:31;;;;;;;8.83;8.23;;;;;;;;;;4969014;28;20976;-78
2023/04/24 04:41:58;;;;;;;9.20;8.60;;;;;;;;;;4972082;28;20494;-81
2023/04/24 04:44:24;;;;;;;11.00;10.10;;;;;;;;;;4967887;28;20525;-80
2023/04/24 04:46:53;;;;;;;10.60;9.60;;;;;;;;;;4974265;28;20929;-80
2023/04/24 04:49:21;;;;;;;9.17;8.50;;;;;;;;;;4972177;28;20445;-79
2023/04/24 04:51:47;;;;;;;6.97;6.57;;;;;;;;;;4974186;28;21069;-81
2023/04/24 04:54:13;;;;;;;6.60;6.20;;;;;;;;;;4952115;28;20449;-80
2023/04/24 04:56:39;;;;;;;6.67;6.20;;;;;;;;;;4974573;28;20492;-79
2023/04/24 04:59:06;;;;;;;11.03;10.00;;;;;;;;;;4972595;28;20449;-81
2023/04/24 05:01:32;;;;;;;9.27;8.47;;;;;;;;;;4967072;28;20692;-80
2023/04/24 05:03:58;;;;;;;10.97;9.90;;;;;;;;;;4968613;28;20442;-81
2023/04/24 05:06:25;;;;;;;10.10;9.27;;;;;;;;;;4973940;28;20464;-80
2023/04/24 05:08:51;;;;;;;7.20;6.60;;;;;;;;;;4972509;28;20964;-82
2023/04/24 05:11:17;;;;;;;9.40;8.57;;;;;;;;;;4975536;28;20806;-80
2023/04/24 05:13:43;;;;;;;11.17;9.50;;;;;;;;;;4967255;28;20455;-82
2023/04/24 05:16:09;;;;;;;13.27;8.80;;;;;;;;;;4968338;28;20892;-81
2023/04/24 05:18:35;;;;;;;15.00;13.73;;;;;;;;;;4966240;28;20445;-81
2023/04/24 05:21:01;;;;;;;11.53;10.57;;;;;;;;;;4971238;28;20459;-81
2023/04/24 05:23:27;;;;;;;12.53;11.20;;;;;;;;;;4971984;28;20433;-80
2023/04/24 05:25:53;;;;;;;11.40;10.57;;;;;;;;;;4973104;28;20589;-81
2023/04/24 05:28:20;;;;;;;13.13;12.07;;;;;;;;;;4974278;28;20444;-79
2023/04/24 05:30:46;;;;;;;13.80;12.73;;;;;;;;;;4974624;28;20835;-79
2023/04/24 05:33:13;;;;;;;14.17;12.67;;;;;;;;;;4970868;28;20700;-80
2023/04/24 05:35:45;;;;;;;14.93;13.53;;;;;;;;;;4972902;28;20445;-81
2023/04/24 05:38:17;;;;;;;15.93;14.43;;;;;;;;;;4959512;28;20461;-80
2023/04/24 05:40:43;;;;;;;14.90;13.60;;;;;;;;;;4967920;28;20439;-80
2023/04/24 05:43:12;;;;;;;16.43;14.83;;;;;;;;;;4957830;28;20446;-79
2023/04/24 05:45:40;;;;;;;9.47;8.87;;;;;;;;;;4965634;28;20492;-83
2023/04/24 05:48:06;;;;;;;16.73;15.00;;;;;;;;;;4963571;28;20429;-82
2023/04/24 05:50:32;;;;;;;13.67;12.57;;;;;;;;;;4969640;28;20418;-82
2023/04/24 05:52:58;;;;;;;15.20;13.40;;;;;;;;;;4967550;28;20436;-80
2023/04/24 05:55:25;;;;;;;11.00;9.20;;;;;;;;;;4970254;28;20425;-81
2023/04/24 05:57:51;;;;;;;10.57;9.77;;;;;;;;;;4971577;28;20437;-79
2023/04/24 06:00:19;;;;;;;10.30;9.40;;;;;;;;;;4970697;28;20557;-80
2023/04/24 06:02:45;;;;;;;12.43;9.07;;;;;;;;;;4973895;28;20803;-81
2023/04/24 06:05:11;;;;;;;11.30;10.37;;;;;;;;;;4966879;28;21137;-80
2023/04/24 06:07:37;;;;;;;9.33;8.53;;;;;;;;;;4974958;28;20998;-81
2023/04/24 06:10:03;;;;;;;11.70;10.70;;;;;;;;;;4967467;28;20472;-81
2023/04/24 06:12:30;;;;;;;10.83;9.80;;;;;;;;;;4973934;28;20445;-80
2023/04/24 06:14:56;;;;;;;8.90;8.43;;;;;;;;;;4969728;28;20425;-82
2023/04/24 06:17:22;;;;;;;37.17;33.97;;;;;;;;;;4973591;28;20454;-79
2023/04/24 06:19:50;;;;;;;10.63;9.93;;;;;;;;;;4975513;28;20424;-81
2023/04/24 06:22:16;;;;;;;9.90;8.93;;;;;;;;;;4984685;28;20453;-81
2023/04/24 06:24:42;;;;;;;14.27;13.23;;;;;;;;;;4993642;28;20420;-82
2023/04/24 06:27:11;;;;;;;8.63;7.97;;;;;;;;;;4991614;28;20436;-82
2023/04/24 06:29:37;;;;;;;13.03;12.10;;;;;;;;;;4979661;28;20429;-80
2023/04/24 06:32:03;;;;;;;9.90;8.97;;;;;;;;;;4990155;28;20449;-83
2023/04/24 06:34:30;;;;;;;13.60;12.37;;;;;;;;;;4998953;28;20428;-83
2023/04/24 06:36:56;;;;;;;24.30;18.47;;;;;;;;;;5061518;23;20859;-90
2023/04/24 06:42:06;;;;;;;7.47;6.80;;;;;;;;;;5230513;23;20492;-83
2023/04/24 06:44:32;;;;;;;16.60;9.23;;;;;;;;;;4985683;23;20482;-94
2023/04/24 06:46:58;;;;;;;8.73;8.10;;;;;;;;;;4944107;29;20489;-94
2023/04/24 06:49:24;;;;;;;12.75;10.48;;;;;;;;;;4943062;29;20446;-91
2023/04/24 06:51:53;;;;;;;8.98;8.27;;;;;;;;;;4937934;29;20226;-91
2023/04/24 06:54:37;;;;;;;10.07;9.33;;;;;;;;;;4965472;28;20187;-95
2023/04/24 06:57:30;;;;;;;9.10;8.30;;;;;;;;;;4946479;29;21014;-94
2023/04/24 07:00:09;;;;;;;6.27;5.73;;;;;;;;;;4947654;29;20856;-94
2023/04/24 07:03:08;;;;;;;5.60;5.40;;;;;;;;;;4943060;29;20465;-95
2023/04/24 07:05:35;;;;;;;11.57;10.60;;;;;;;;;;4913182;29;20475;-94
2023/04/24 07:08:17;;;;;;;7.13;6.47;;;;;;;;;;4950552;29;20461;-95
2023/04/24 07:10:43;;;;;;;14.90;13.37;;;;;;;;;;4937654;29;20251;-93
2023/04/24 07:13:12;;;;;;;5.00;4.80;;;;;;;;;;4933507;29;20402;-92
2023/04/24 07:15:39;;;;;;;6.90;6.03;;;;;;;;;;4957694;23;20242;-82
2023/04/24 07:18:05;;;;;;;8.00;7.40;;;;;;;;;;4968778;28;20454;-82
2023/04/24 07:20:31;;;;;;;5.43;5.13;;;;;;;;;;4961992;28;20820;-83
2023/04/24 07:22:57;;;;;;;3.70;3.57;;;;;;;;;;5189809;23;20496;-84
2023/04/24 07:25:23;;;;;;;5.13;4.93;;;;;;;;;;4989009;28;20483;-81
2023/04/24 07:27:50;;;;;;;5.83;5.43;;;;;;;;;;4974811;28;20524;-84
2023/04/24 07:30:16;;;;;;;2.93;2.87;;;;;;;;;;4966988;28;20485;-83
2023/04/24 07:32:42;;;;;;;3.73;3.60;;;;;;;;;;4986734;28;20433;-83
2023/04/24 07:35:09;;;;;;;3.10;3.00;;;;;;;;;;4971668;28;20504;-82
2023/04/24 07:37:35;;;;;;;3.50;3.40;;;;;;;;;;4981690;28;20454;-82
2023/04/24 07:40:01;;;;;;;3.00;2.90;;;;;;;;;;4969760;29;20450;-83
2023/04/24 07:42:30;;;;;;;2.67;2.67;;;;;;;;;;4946883;29;20474;-81
2023/04/24 07:44:56;;;;;;;2.10;2.10;;;;;;;;;;5038765;23;21027;-81
2023/04/24 07:47:22;;;;;;;1.57;1.47;;;;;;;;;;4985198;28;20440;-82
2023/04/24 07:49:48;;;;;;;2.03;1.13;;;;;;;;;;4984707;28;20453;-84
2023/04/24 07:52:14;;;;;;;1.30;1.30;;;;;;;;;;4990344;28;20445;-82
2023/04/24 07:54:40;;;;;;;0.80;0.80;;;;;;;;;;4987011;28;20437;-82
2023/04/24 07:57:08;;;;;;;1.50;1.50;;;;;;;;;;4966533;28;20448;-83
2023/04/24 07:59:34;;;;;;;1.50;1.50;;;;;;;;;;4979746;28;20437;-83
2023/04/24 08:02:01;;;;;;;0.60;0.60;;;;;;;;;;4983930;28;20859;-82
2023/04/24 08:04:27;;;;;;;1.60;1.60;;;;;;;;;;4979224;28;20436;-82
2023/04/24 08:06:53;;;;;;;1.30;1.30;;;;;;;;;;4980109;28;20491;-82
2023/04/24 08:09:19;;;;;;;1.30;1.30;;;;;;;;;;4967542;28;20724;-81
2023/04/24 08:11:45;;;;;;;1.43;1.43;;;;;;;;;;4965044;28;20433;-81
2023/04/24 08:14:13;;;;;;;2.03;1.93;;;;;;;;;;4966454;28;20932;-80
2023/04/24 08:16:39;;;;;;;0.70;0.70;;;;;;;;;;4970641;28;20508;-80
2023/04/24 08:19:05;;;;;;;0.90;0.90;;;;;;;;;;4970745;28;20463;-81
2023/04/24 08:21:31;;;;;;;1.27;1.27;;;;;;;;;;4970216;28;20441;-83
2023/04/24 08:23:57;;;;;;;1.40;1.40;;;;;;;;;;4965422;28;20448;-82
2023/04/24 08:26:26;;;;;;;1.30;1.30;;;;;;;;;;4971229;28;20477;-82
2023/04/24 08:28:52;;;;;;;1.30;1.30;;;;;;;;;;4968941;28;20445;-82
2023/04/24 08:31:18;;;;;;;2.30;2.30;;;;;;;;;;4971095;28;20443;-80
2023/04/24 08:33:45;;;;;;;3.70;2.20;;;;;;;;;;4979488;28;20496;-80
2023/04/24 08:36:11;;;;;;;2.30;2.30;;;;;;;;;;4995222;28;20432;-81
2023/04/24 08:38:38;;;;;;;2.40;2.40;;;;;;;;;;4988029;28;20453;-80
2023/04/24 08:41:04;;;;;;;3.10;2.90;;;;;;;;;;4976608;28;20485;-81
2023/04/24 08:43:34;;;;;;;2.47;2.47;;;;;;;;;;4970359;28;20793;-82
2023/04/24 08:46:00;;;;;;;4.43;4.13;;;;;;;;;;4966202;28;20499;-81
2023/04/24 08:48:27;;;;;;;4.03;3.73;;;;;;;;;;4958349;28;20920;-81
2023/04/24 08:50:53;;;;;;;4.07;3.97;;;;;;;;;;4974792;28;20447;-80
2023/04/24 08:53:19;;;;;;;3.47;3.47;;;;;;;;;;4969058;28;20655;-81
2023/04/24 08:55:47;;;;;;;4.20;3.90;;;;;;;;;;4975519;28;20473;-81
2023/04/24 08:58:14;;;;;;;3.00;2.37;;;;;;;;;;4975860;28;20535;-81
2023/04/24 09:00:43;;;;;;;2.60;2.50;;;;;;;;;;4976040;28;20524;-82
2023/04/24 09:03:10;;;;;;;3.33;3.23;;;;;;;;;;4974628;28;20852;-79
2023/04/24 09:05:36;;;;;;;3.87;3.57;;;;;;;;;;4960342;28;20469;-82
2023/04/24 09:08:02;;;;;;;2.57;2.57;;;;;;;;;;4990974;28;20934;-82
2023/04/24 09:10:30;;;;;;;4.17;4.07;;;;;;;;;;4972782;28;20437;-82
2023/04/24 09:12:58;;;;;;;2.50;2.50;;;;;;;;;;4979238;28;20859;-81
2023/04/24 09:15:25;;;;;;;3.83;3.83;;;;;;;;;;4971161;28;20851;-81
2023/04/24 09:17:51;;;;;;;4.03;3.70;;;;;;;;;;4971942;28;20888;-82
2023/04/24 09:20:17;;;;;;;2.33;2.33;;;;;;;;;;4970158;28;20532;-81
2023/04/24 09:22:45;;;;;;;2.53;2.43;;;;;;;;;;4975888;28;20536;-81
2023/04/24 09:25:12;;;;;;;4.23;4.10;;;;;;;;;;4984607;28;20499;-82
2023/04/24 09:27:42;;;;;;;5.53;5.33;;;;;;;;;;4984929;28;21146;-84
2023/04/24 09:30:08;;;;;;;5.53;5.27;;;;;;;;;;4981133;28;20558;-82
2023/04/24 09:32:34;;;;;;;5.30;5.00;;;;;;;;;;4986357;28;20436;-82
2023/04/24 09:35:09;;;;;;;6.63;6.23;;;;;;;;;;4991522;28;20528;-83
2023/04/24 09:37:37;;;;;;;4.67;4.47;;;;;;;;;;4986792;28;20421;-81
2023/04/24 09:40:11;;;;;;;10.87;9.87;;;;;;;;;;4980415;28;20953;-81
2023/04/24 09:42:37;;;;;;;5.30;5.00;;;;;;;;;;4970242;28;20404;-80
2023/04/24 09:45:03;;;;;;;6.30;5.95;;;;;;;;;;4978440;28;20412;-84
2023/04/24 09:47:36;;;;;;;4.60;4.30;;;;;;;;;;4974685;28;20820;-80
2023/04/24 09:50:09;;;;;;;6.73;6.37;;;;;;;;;;4958979;28;20202;-80
2023/04/24 09:52:35;;;;;;;5.03;4.87;;;;;;;;;;4956318;28;20430;-82
2023/04/24 09:55:02;;;;;;;4.97;4.60;;;;;;;;;;4968320;28;20433;-81
2023/04/24 09:57:28;;;;;;;5.77;5.37;;;;;;;;;;4954148;28;20430;-80
2023/04/24 09:59:57;;;;;;;6.87;6.47;;;;;;;;;;4945748;28;20877;-80
2023/04/24 10:02:23;;;;;;;7.10;6.60;;;;;;;;;;4958139;28;20446;-81
2023/04/24 10:04:59;;;;;;;7.07;5.70;;;;;;;;;;4975402;28;20503;-82
2023/04/24 10:07:28;;;;;;;8.93;6.50;;;;;;;;;;4992556;28;20433;-83
2023/04/24 10:09:54;;;;;;;6.20;5.73;;;;;;;;;;4995747;28;20463;-83
2023/04/24 10:12:20;;;;;;;7.87;7.27;;;;;;;;;;4980205;28;20422;-80
2023/04/24 10:14:47;;;;;;;7.80;7.00;;;;;;;;;;4991349;28;20457;-82
2023/04/24 10:17:13;;;;;;;7.87;7.17;;;;;;;;;;4965789;28;20189;-83
2023/04/24 10:19:41;;;;;;;7.23;6.73;;;;;;;;;;4988508;28;20444;-85
2023/04/24 10:22:07;;;;;;;7.60;5.83;;;;;;;;;;4988366;28;20413;-83
2023/04/24 10:24:36;;;;;;;7.57;6.87;;;;;;;;;;4986144;28;20437;-84
2023/04/24 10:27:03;;;;;;;7.33;6.20;;;;;;;;;;4989897;28;20486;-83
2023/04/24 10:29:31;;;;;;;7.63;7.00;;;;;;;;;;4993619;28;20446;-83
2023/04/24 10:31:57;;;;;;;9.00;6.43;;;;;;;;;;4978958;28;20413;-84
2023/04/24 10:34:23;;;;;;;7.17;5.50;;;;;;;;;;4971870;28;20495;-83
2023/04/24 10:36:52;;;;;;;8.50;7.70;;;;;;;;;;4998449;28;20946;-84
2023/04/24 10:39:19;;;;;;;10.30;6.80;;;;;;;;;;4988999;28;20481;-83
2023/04/24 10:41:46;;;;;;;9.80;8.33;;;;;;;;;;4981640;23;20258;-91
2023/04/24 10:44:16;;;;;;;7.30;6.60;;;;;;;;;;4966608;28;20438;-95
2023/04/24 10:46:48;;;;;;;9.90;7.55;;;;;;;;;;4943493;29;20963;-91
2023/04/24 10:49:14;;;;;;;12.70;8.38;;;;;;;;;;4944649;29;20428;-94
2023/04/24 10:51:50;;;;;;;9.70;7.65;;;;;;;;;;4944596;29;20825;-93
2023/04/24 10:54:23;;;;;;;8.40;6.70;;;;;;;;;;4947323;29;20500;-94
2023/04/24 10:57:18;;;;;;;8.18;6.70;;;;;;;;;;4958875;28;20411;-94
2023/04/24 10:59:48;;;;;;;8.35;6.90;;;;;;;;;;4915369;29;20474;-94
2023/04/24 11:02:35;;;;;;;8.23;6.60;;;;;;;;;;4939562;29;20449;-95
2023/04/24 11:05:10;;;;;;;9.38;6.72;;;;;;;;;;4947503;29;20406;-95
2023/04/24 11:08:06;;;;;;;9.83;6.10;;;;;;;;;;4944218;29;20407;-92
2023/04/24 11:13:17;;;;;;;7.72;6.63;;;;;;;;;;4979074;23;20525;-83
2023/04/24 11:15:43;;;;;;;9.70;6.10;;;;;;;;;;4970239;28;20419;-81
2023/04/24 11:18:15;;;;;;;7.17;5.67;;;;;;;;;;4970924;28;20281;-83
2023/04/24 11:20:45;;;;;;;6.83;5.67;;;;;;;;;;4973034;28;20433;-83
2023/04/24 11:23:14;;;;;;;8.27;5.73;;;;;;;;;;4968213;28;20433;-83
2023/04/24 11:25:40;;;;;;;13.48;6.75;;;;;;;;;;4946584;28;20409;-81
2023/04/24 11:28:06;;;;;;;21.73;8.67;;;;;;;;;;4967733;28;20186;-83
2023/04/24 11:30:33;;;;;;;13.60;8.40;;;;;;;;;;4970610;28;20396;-79
2023/04/24 11:33:06;;;;;;;8.65;7.80;;;;;;;;;;4976780;28;20575;-84
2023/04/24 11:35:37;;;;;;;10.90;9.10;;;;;;;;;;4990573;28;20461;-82
2023/04/24 11:38:04;;;;;;;10.02;8.57;;;;;;;;;;4979128;28;20511;-82
2023/04/24 11:40:30;;;;;;;10.57;7.68;;;;;;;;;;4955165;28;20520;-83
2023/04/24 11:42:56;;;;;;;6.27;5.70;;;;;;;;;;4969684;28;20594;-80
2023/04/24 11:45:23;;;;;;;5.30;5.03;;;;;;;;;;4964653;28;20917;-80
2023/04/24 11:47:49;;;;;;;7.97;7.27;;;;;;;;;;4962167;28;20487;-80
2023/04/24 11:50:17;;;;;;;8.07;6.47;;;;;;;;;;4966531;28;20506;-80
2023/04/24 11:52:45;;;;;;;7.73;6.93;;;;;;;;;;4960877;28;20445;-79
2023/04/24 11:55:14;;;;;;;6.87;5.43;;;;;;;;;;4972030;28;20415;-86
2023/04/24 11:57:44;;;;;;;7.83;5.93;;;;;;;;;;4992705;28;20465;-83
2023/04/24 12:00:18;;;;;;;25.10;15.53;;;;;;;;;;5071392;23;21674;-81
2023/04/24 12:02:49;;;;;;;6.40;5.20;;;;;;;;;;4991969;28;20427;-82
2023/04/24 12:05:34;;;;;;;8.83;7.23;;;;;;;;;;4985241;28;20465;-85
2023/04/24 12:08:00;;;;;;;8.10;5.00;;;;;;;;;;4971627;29;20425;-85
2023/04/24 12:10:30;;;;;;;5.53;5.00;;;;;;;;;;5115459;23;20492;-84
2023/04/24 12:12:59;;;;;;;4.23;3.37;;;;;;;;;;4988900;28;20427;-84
2023/04/24 12:15:28;;;;;;;4.47;4.07;;;;;;;;;;4977450;28;20484;-80
2023/04/24 12:17:54;;;;;;;6.83;5.27;;;;;;;;;;5086928;23;20478;-83
2023/04/24 12:20:25;;;;;;;14.10;4.23;;;;;;;;;;5125118;23;20485;-92
2023/04/24 12:23:14;;;;;;;5.28;4.70;;;;;;;;;;4953279;28;20487;-93
2023/04/24 12:25:41;;;;;;;6.10;4.10;;;;;;;;;;4997795;23;20286;-83
2023/04/24 12:28:07;;;;;;;8.07;5.10;;;;;;;;;;4981013;23;20723;-92
2023/04/24 12:30:37;;;;;;;6.73;5.03;;;;;;;;;;4969674;28;20444;-92
2023/04/24 12:33:06;;;;;;;8.93;5.47;;;;;;;;;;4970066;29;20477;-93
2023/04/24 12:35:35;;;;;;;10.53;6.40;;;;;;;;;;4975146;28;20495;-93
2023/04/24 12:38:15;;;;;;;7.63;3.77;;;;;;;;;;4986759;23;20583;-84
2023/04/24 12:40:41;;;;;;;3.90;3.10;;;;;;;;;;4973188;28;20444;-84
2023/04/24 12:43:22;;;;;;;2.30;2.30;;;;;;;;;;4982558;28;20447;-83
2023/04/24 12:45:49;;;;;;;5.23;3.77;;;;;;;;;;5004341;23;20516;-92
2023/04/24 12:48:20;;;;;;;3.90;3.70;;;;;;;;;;4982501;28;21007;-91
2023/04/24 12:50:51;;;;;;;6.00;3.30;;;;;;;;;;4969379;28;20425;-91
2023/04/24 12:53:17;;;;;;;3.43;3.37;;;;;;;;;;4980774;28;20485;-92
2023/04/24 12:55:52;;;;;;;3.13;3.03;;;;;;;;;;4983741;28;20449;-92
2023/04/24 12:58:21;;;;;;;30.47;16.03;;;;;;;;;;5000467;23;20694;-80
2023/04/24 13:00:50;;;;;;;3.07;2.97;;;;;;;;;;4990820;28;20410;-83
2023/04/24 13:03:16;;;;;;;14.10;12.73;;;;;;;;;;4965987;28;20425;-81
2023/04/24 13:05:43;;;;;;;2.33;2.23;;;;;;;;;;4965353;28;20458;-81
2023/04/24 13:08:09;;;;;;;5.77;3.13;;;;;;;;;;4980672;28;20429;-81
2023/04/24 13:10:35;;;;;;;1.97;1.97;;;;;;;;;;4978151;28;20438;-80
2023/04/24 13:13:01;;;;;;;4.07;3.70;;;;;;;;;;4979758;28;20452;-81
2023/04/24 13:15:27;;;;;;;2.92;2.72;;;;;;;;;;4970936;28;20431;-79
2023/04/24 13:17:53;;;;;;;2.23;2.13;;;;;;;;;;4954004;29;20190;-83
2023/04/24 13:20:19;;;;;;;2.73;2.53;;;;;;;;;;4967272;28;20453;-81
2023/04/24 13:22:45;;;;;;;3.07;2.70;;;;;;;;;;4983304;28;20433;-84
2023/04/24 13:25:12;;;;;;;3.53;3.23;;;;;;;;;;4985405;28;20445;-81
2023/04/24 13:27:41;;;;;;;3.00;2.80;;;;;;;;;;4978983;28;20450;-82
2023/04/24 13:30:07;;;;;;;3.20;3.10;;;;;;;;;;4989817;28;20461;-83
2023/04/24 13:32:35;;;;;;;3.23;3.10;;;;;;;;;;4990184;28;20837;-80
2023/04/24 13:35:02;;;;;;;5.03;2.77;;;;;;;;;;4991561;28;20441;-81
2023/04/24 13:37:32;;;;;;;3.67;2.83;;;;;;;;;;4976562;28;20465;-82
2023/04/24 13:39:58;;;;;;;3.13;3.03;;;;;;;;;;4996818;28;20448;-84
2023/04/24 13:42:24;;;;;;;3.13;2.30;;;;;;;;;;4985879;28;20445;-83
2023/04/24 13:44:50;;;;;;;1.73;1.73;;;;;;;;;;4987890;28;20449;-82
2023/04/24 13:47:16;;;;;;;3.50;2.60;;;;;;;;;;5004640;28;20456;-83
2023/04/24 13:49:42;;;;;;;1.80;1.70;;;;;;;;;;4987391;28;20449;-82
2023/04/24 13:52:18;;;;;;;2.00;1.90;;;;;;;;;;4999987;28;20452;-82
2023/04/24 13:54:44;;;;;;;1.40;1.30;;;;;;;;;;4978390;28;20681;-81
2023/04/24 13:57:11;;;;;;;2.53;2.43;;;;;;;;;;4985760;28;20609;-82
2023/04/24 13:59:37;;;;;;;3.10;1.57;;;;;;;;;;4989816;28;20529;-82
2023/04/24 14:02:03;;;;;;;1.90;1.90;;;;;;;;;;4993442;28;20381;-82
2023/04/24 14:04:29;;;;;;;2.63;2.43;;;;;;;;;;4991957;28;20449;-82
2023/04/24 14:06:55;;;;;;;2.60;1.80;;;;;;;;;;5000578;28;20417;-82
2023/04/24 14:09:21;;;;;;;2.97;2.37;;;;;;;;;;4992785;28;20409;-81
2023/04/24 14:11:47;;;;;;;2.13;2.13;;;;;;;;;;5008274;28;20800;-82
2023/04/24 14:14:13;;;;;;;3.10;3.10;;;;;;;;;;5002653;28;20452;-81
2023/04/24 14:16:39;;;;;;;5.77;3.40;;;;;;;;;;5000446;28;20492;-82
2023/04/24 14:19:06;;;;;;;6.17;5.77;;;;;;;;;;4986490;28;20449;-81
2023/04/24 14:21:32;;;;;;;3.03;2.67;;;;;;;;;;4999132;28;20440;-82
2023/04/24 14:23:58;;;;;;;3.60;3.40;;;;;;;;;;4988096;28;20437;-84
2023/04/24 14:26:24;;;;;;;1.90;1.80;;;;;;;;;;4994199;28;20421;-82
2023/04/24 14:28:52;;;;;;;2.13;2.00;;;;;;;;;;4989460;28;20464;-86
2023/04/24 14:31:18;;;;;;;2.00;1.90;;;;;;;;;;4992751;28;20442;-83
2023/04/24 14:33:45;;;;;;;1.80;1.30;;;;;;;;;;4993310;28;20413;-83
2023/04/24 14:36:11;;;;;;;1.60;1.60;;;;;;;;;;4994011;28;20480;-84
2023/04/24 14:38:37;;;;;;;1.30;1.30;;;;;;;;;;4991831;28;20436;-81
2023/04/24 14:41:08;;;;;;;1.40;1.40;;;;;;;;;;4996901;28;20459;-83
2023/04/24 14:43:56;;;;;;;1.30;1.30;;;;;;;;;;4984913;28;20429;-83
2023/04/24 14:46:37;;;;;;;1.70;1.70;;;;;;;;;;4986140;28;20432;-83